Time;durP1;ratioP1;P1;durP2;ratioP2;P2;SDS_P1;SDS_P2;PMS_P1;PMS_P2;Temp;Humidity;BMP_temperature;BMP_pressure;BME280_temperature;BME280_humidity;BME280_pressure;Samples;Min_cycle;Max_cycle;Signal;HPM_P1;HPM_P2
2023/12/24 00:01:07;;;;;;;;;;;8.20;99.90;;;7.63;100.00;97621.75;5019031;28;1899;-68
2023/12/24 00:03:33;;;;;;;;;;;8.20;99.90;;;7.60;100.00;97652.00;5019071;28;1386;-69
2023/12/24 00:06:00;;;;;;;;;;;8.10;99.90;;;7.64;100.00;97645.81;5020505;28;1344;-70
2023/12/24 00:08:31;;;;;;;;;;;8.10;99.90;;;7.46;100.00;97635.16;5017656;28;1420;-69
2023/12/24 00:10:58;;;;;;;;;;;8.10;99.90;;;7.47;100.00;97623.94;5018968;28;1525;-69
2023/12/24 00:13:26;;;;;;;;;;;8.20;99.90;;;7.63;100.00;97637.25;5018467;28;1426;-68
2023/12/24 00:15:53;;;;;;;;;;;8.10;99.90;;;7.53;100.00;97630.66;5017912;28;1697;-69
2023/12/24 00:18:20;;;;;;;;;;;8.20;99.90;;;7.62;100.00;97643.31;5017396;28;1396;-68
2023/12/24 00:20:47;;;;;;;;;;;8.20;99.90;;;7.63;100.00;97646.72;5018693;28;1987;-69
2023/12/24 00:23:13;;;;;;;;;;;8.20;99.90;;;7.51;100.00;97629.88;5018602;28;1312;-68
2023/12/24 00:25:40;;;;;;;;;;;8.20;99.90;;;7.47;100.00;97629.09;5016002;28;1665;-69
2023/12/24 00:28:07;;;;;;;;;;;8.20;99.90;;;7.68;100.00;97647.44;5016272;28;1367;-70
2023/12/24 00:30:35;;;;;;;;;;;8.10;99.90;;;7.59;100.00;97614.97;5017569;28;1436;-69
2023/12/24 00:33:02;;;;;;;;;;;8.10;99.90;;;7.57;100.00;97619.34;5016867;28;1467;-70
2023/12/24 00:35:31;;;;;;;;;;;8.10;99.90;;;7.44;100.00;97602.53;5018237;28;1442;-69
2023/12/24 00:38:01;;;;;;;;;;;8.10;99.90;;;7.44;100.00;97608.53;5018379;28;1440;-68
2023/12/24 00:40:28;;;;;;;;;;;8.10;99.90;;;7.41;100.00;97610.34;5020275;28;1631;-69
2023/12/24 00:42:54;;;;;;;;;;;8.10;99.90;;;7.37;100.00;97613.91;5018249;28;1965;-69
2023/12/24 00:45:21;;;;;;;;;;;8.10;99.90;;;7.36;100.00;97645.81;5018371;28;1419;-69
2023/12/24 00:47:48;;;;;;;;;;;8.00;99.90;;;7.34;100.00;97617.44;5018455;28;1675;-69
2023/12/24 00:50:15;;;;;;;;;;;8.00;99.90;;;7.36;100.00;97635.47;5014605;28;3288;-69
2023/12/24 00:52:42;;;;;;;;;;;8.00;99.90;;;7.28;100.00;97635.69;5016540;28;1427;-69
2023/12/24 00:55:09;;;;;;;;;;;8.00;99.90;;;7.31;100.00;97620.09;5018720;28;1439;-68
2023/12/24 00:57:39;;;;;;;;;;;7.90;99.90;;;7.19;100.00;97628.22;5017987;28;1368;-68
2023/12/24 01:00:07;;;;;;;;;;;7.90;99.90;;;7.14;100.00;97592.22;5019142;28;1576;-69
2023/12/24 01:02:34;;;;;;;;;;;7.80;99.90;;;7.09;100.00;97565.66;5001828;28;1926;-68
2023/12/24 01:05:00;;;;;;;;;;;7.80;99.90;;;7.13;100.00;97572.44;5016641;28;1439;-68
2023/12/24 01:07:27;;;;;;;;;;;7.80;99.90;;;7.03;100.00;97564.13;5017592;28;1773;-68
2023/12/24 01:09:54;;;;;;;;;;;7.70;99.90;;;6.97;100.00;97548.78;5020085;28;1468;-68
2023/12/24 01:12:21;;;;;;;;;;;7.70;99.90;;;7.01;100.00;97578.78;5019609;28;1523;-68
2023/12/24 01:14:48;;;;;;;;;;;7.70;99.90;;;6.96;100.00;97574.66;5015105;28;1513;-69
2023/12/24 01:17:14;;;;;;;;;;;7.60;99.90;;;6.91;100.00;97567.91;5030222;28;1638;-69
2023/12/24 01:19:43;;;;;;;;;;;7.60;99.90;;;6.93;100.00;97573.00;5017294;28;1390;-68
2023/12/24 01:22:10;;;;;;;;;;;7.60;99.90;;;6.87;100.00;97566.28;5046184;28;1909;-69
2023/12/24 01:24:37;;;;;;;;;;;7.60;99.90;;;6.84;100.00;97565.50;5016018;28;1445;-68
2023/12/24 01:27:04;;;;;;;;;;;7.60;99.90;;;6.80;100.00;97557.03;5025939;28;1742;-69
2023/12/24 01:29:31;;;;;;;;;;;7.50;99.90;;;6.88;100.00;97580.03;5032524;28;1462;-69
2023/12/24 01:31:58;;;;;;;;;;;7.50;99.90;;;6.83;100.00;97564.66;5017512;28;1560;-68
2023/12/24 01:34:25;;;;;;;;;;;7.50;99.90;;;6.82;100.00;97604.28;5019022;28;1732;-68
2023/12/24 01:36:52;;;;;;;;;;;7.50;99.90;;;6.86;100.00;97620.50;5003079;28;1457;-69
2023/12/24 01:39:20;;;;;;;;;;;7.40;99.90;;;6.94;100.00;97613.41;5015539;28;1352;-68
2023/12/24 01:41:47;;;;;;;;;;;7.50;99.90;;;6.89;100.00;97590.31;5032383;28;2015;-68
2023/12/24 01:44:14;;;;;;;;;;;7.50;99.90;;;6.87;100.00;97592.09;5017593;28;1486;-68
2023/12/24 01:46:41;;;;;;;;;;;7.50;99.90;;;7.01;100.00;97614.94;5020098;28;3232;-68
2023/12/24 01:49:10;;;;;;;;;;;7.50;99.90;;;6.88;100.00;97592.91;5031526;28;1537;-67
2023/12/24 01:51:38;;;;;;;;;;;7.50;99.90;;;6.76;100.00;97604.44;5050200;28;1268;-68
2023/12/24 01:54:05;;;;;;;;;;;7.50;99.90;;;6.78;100.00;97612.13;5019183;28;1382;-69
2023/12/24 01:56:32;;;;;;;;;;;7.50;99.90;;;6.83;100.00;97626.59;5022006;28;5036;-69
2023/12/24 01:59:00;;;;;;;;;;;7.40;99.90;;;6.75;100.00;97599.31;5017679;28;1396;-69
2023/12/24 02:01:27;;;;;;;;;;;7.40;99.90;;;6.76;100.00;97637.13;5017247;28;1914;-69
2023/12/24 02:03:53;;;;;;;;;;;7.40;99.90;;;6.78;100.00;97650.84;5017949;28;1634;-69
2023/12/24 02:06:21;;;;;;;;;;;7.40;99.90;;;6.84;100.00;97660.97;5033022;28;1140;-69
2023/12/24 02:08:49;;;;;;;;;;;7.40;99.90;;;6.83;100.00;97659.28;5021161;28;1555;-69
2023/12/24 02:11:16;;;;;;;;;;;7.50;99.90;;;6.93;100.00;97639.25;5019558;28;1537;-69
2023/12/24 02:13:44;;;;;;;;;;;7.50;99.90;;;6.85;100.00;97649.78;5019036;28;1536;-69
2023/12/24 02:16:11;;;;;;;;;;;7.50;99.90;;;6.90;100.00;97641.00;5017768;28;1396;-68
2023/12/24 02:18:38;;;;;;;;;;;7.50;99.90;;;6.95;100.00;97647.78;5036538;28;1256;-68
2023/12/24 02:21:05;;;;;;;;;;;7.40;99.90;;;6.93;100.00;97613.44;5022741;28;1106;-69
2023/12/24 02:23:32;;;;;;;;;;;7.50;99.90;;;6.96;100.00;97641.75;5022296;28;1957;-68
2023/12/24 02:26:23;;;;;;;;;;;7.50;99.90;;;6.84;100.00;97630.00;5035719;28;1384;-69
2023/12/24 02:28:54;;;;;;;;;;;7.50;99.90;;;6.81;100.00;97628.34;5021897;28;2032;-70
2023/12/24 02:31:23;;;;;;;;;;;7.50;99.90;;;6.93;100.00;97663.31;5021966;28;1386;-69
2023/12/24 02:34:07;;;;;;;;;;;7.50;99.90;;;6.93;100.00;97660.72;5035930;28;1379;-70
2023/12/24 02:36:35;;;;;;;;;;;7.50;99.90;;;6.85;100.00;97652.34;5022290;28;1320;-69
2023/12/24 02:39:02;;;;;;;;;;;7.50;99.90;;;6.87;100.00;97648.00;5018044;28;1474;-68
2023/12/24 02:41:29;;;;;;;;;;;7.50;99.90;;;6.97;100.00;97666.66;5022383;28;1993;-69
2023/12/24 02:43:56;;;;;;;;;;;7.50;99.90;;;6.84;100.00;97623.13;5021190;28;3245;-70
2023/12/24 02:46:22;;;;;;;;;;;7.60;99.90;;;6.85;100.00;97611.09;5020774;28;1317;-69
2023/12/24 02:48:49;;;;;;;;;;;7.60;99.90;;;6.89;100.00;97610.94;5020863;28;1468;-69
2023/12/24 02:51:16;;;;;;;;;;;7.70;99.90;;;6.95;100.00;97603.94;5021023;28;1438;-69
2023/12/24 02:53:43;;;;;;;;;;;7.60;99.90;;;7.01;100.00;97617.50;5022171;28;1376;-68
2023/12/24 02:56:10;;;;;;;;;;;7.60;99.90;;;6.94;100.00;97577.28;5021557;28;1371;-70
2023/12/24 02:58:37;;;;;;;;;;;7.60;99.90;;;7.05;100.00;97579.56;5022331;28;5015;-70
2023/12/24 03:01:04;;;;;;;;;;;7.60;99.90;;;7.03;100.00;97586.50;5021178;28;1419;-69
2023/12/24 03:03:31;;;;;;;;;;;7.60;99.90;;;7.10;100.00;97567.38;5019766;28;1985;-69
2023/12/24 03:05:58;;;;;;;;;;;7.60;99.90;;;6.96;100.00;97548.88;5017283;28;1435;-69
2023/12/24 03:08:25;;;;;;;;;;;7.70;99.90;;;6.95;100.00;97553.16;5020621;28;1376;-69
2023/12/24 03:10:51;;;;;;;;;;;7.60;99.90;;;6.87;100.00;97552.53;5021076;28;1380;-69
2023/12/24 03:13:18;;;;;;;;;;;7.60;99.90;;;6.89;100.00;97540.44;5019958;28;1400;-69
2023/12/24 03:15:45;;;;;;;;;;;7.60;99.90;;;6.88;100.00;97569.69;5021051;28;1451;-68
2023/12/24 03:18:12;;;;;;;;;;;7.50;99.90;;;6.87;100.00;97544.81;5021856;28;1444;-68
2023/12/24 03:20:39;;;;;;;;;;;7.50;99.90;;;6.78;100.00;97556.22;5024499;28;1358;-68
2023/12/24 03:23:06;;;;;;;;;;;7.40;99.90;;;6.81;100.00;97547.53;5033895;28;1930;-68
2023/12/24 03:25:34;;;;;;;;;;;7.40;99.90;;;6.73;100.00;97547.78;5021291;28;1507;-68
2023/12/24 03:28:00;;;;;;;;;;;7.40;99.90;;;6.73;100.00;97544.31;5007794;28;1979;-68
2023/12/24 03:30:27;;;;;;;;;;;7.40;99.90;;;6.70;100.00;97553.88;5033919;28;1432;-69
2023/12/24 03:32:55;;;;;;;;;;;7.40;99.90;;;6.65;100.00;97536.81;5022213;28;1260;-68
2023/12/24 03:35:23;;;;;;;;;;;7.40;99.90;;;6.77;100.00;97540.78;5034908;28;1514;-68
2023/12/24 03:37:50;;;;;;;;;;;7.40;99.90;;;6.71;100.00;97539.22;5019632;28;1356;-69
2023/12/24 03:40:17;;;;;;;;;;;7.40;99.90;;;6.75;100.00;97542.53;5017272;28;3091;-69
2023/12/24 03:42:43;;;;;;;;;;;7.30;99.90;;;6.69;100.00;97521.19;5016819;28;1930;-69
2023/12/24 03:45:10;;;;;;;;;;;7.40;99.90;;;6.78;100.00;97537.31;5024116;28;1640;-69
2023/12/24 03:47:38;;;;;;;;;;;7.30;99.90;;;6.75;100.00;97540.84;5018108;28;1366;-69
2023/12/24 03:50:05;;;;;;;;;;;7.30;99.90;;;6.63;100.00;97552.31;5023714;28;1474;-69
2023/12/24 03:52:32;;;;;;;;;;;7.30;99.90;;;6.61;100.00;97530.88;5022242;28;1577;-68
2023/12/24 03:54:59;;;;;;;;;;;7.30;99.90;;;6.60;100.00;97490.50;5020278;28;1367;-67
2023/12/24 03:57:26;;;;;;;;;;;7.30;99.90;;;6.59;100.00;97511.19;5019823;28;5110;-69
2023/12/24 03:59:53;;;;;;;;;;;7.30;99.90;;;6.64;100.00;97468.91;5018347;28;1320;-69
2023/12/24 04:02:24;;;;;;;;;;;7.30;99.90;;;6.66;100.00;97513.56;5032576;28;1906;-69
2023/12/24 04:04:52;;;;;;;;;;;7.30;99.90;;;6.57;100.00;97542.19;5020171;28;1353;-69
2023/12/24 04:07:18;;;;;;;;;;;7.20;99.90;;;6.56;100.00;97522.44;5018453;28;1401;-68
2023/12/24 04:09:45;;;;;;;;;;;7.20;99.90;;;6.58;100.00;97506.91;5020121;28;1479;-69
2023/12/24 04:12:12;;;;;;;;;;;7.20;99.90;;;6.49;100.00;97488.22;5033985;28;1394;-69
2023/12/24 04:14:39;;;;;;;;;;;7.20;99.90;;;6.48;100.00;97472.81;5018216;28;1492;-68
2023/12/24 04:17:06;;;;;;;;;;;7.20;99.90;;;6.53;100.00;97501.88;5021325;28;1459;-69
2023/12/24 04:19:33;;;;;;;;;;;7.20;99.90;;;6.58;100.00;97501.75;5021828;28;1405;-67
2023/12/24 04:22:00;;;;;;;;;;;7.20;99.90;;;6.63;100.00;97518.78;5019687;28;1910;-68
2023/12/24 04:24:27;;;;;;;;;;;7.20;99.90;;;6.57;100.00;97487.16;5020682;28;1125;-69
2023/12/24 04:26:54;;;;;;;;;;;7.20;99.90;;;6.58;100.00;97507.75;5020453;28;1367;-68
2023/12/24 04:29:21;;;;;;;;;;;7.20;99.90;;;6.57;100.00;97503.50;5017836;28;1482;-68
2023/12/24 04:31:47;;;;;;;;;;;7.20;99.90;;;6.58;100.00;97524.97;5016719;28;1434;-68
2023/12/24 04:34:14;;;;;;;;;;;7.20;99.90;;;6.51;100.00;97482.19;5050808;28;1303;-69
2023/12/24 04:36:41;;;;;;;;;;;7.20;99.90;;;6.54;100.00;97513.03;5016968;28;3068;-69
2023/12/24 04:39:08;;;;;;;;;;;7.20;99.90;;;6.52;100.00;97499.34;5018133;28;1434;-68
2023/12/24 04:41:35;;;;;;;;;;;7.20;99.90;;;6.58;100.00;97517.22;5017090;28;1356;-67
2023/12/24 04:44:04;;;;;;;;;;;7.20;99.90;;;6.59;100.00;97495.69;5018844;28;1966;-68
2023/12/24 04:46:39;;;;;;;;;;;7.20;99.90;;;6.59;100.00;97457.88;5019760;28;1384;-68
2023/12/24 04:49:06;;;;;;;;;;;7.20;99.90;;;6.54;100.00;97493.25;5018666;28;1490;-69
2023/12/24 04:51:33;;;;;;;;;;;7.20;99.90;;;6.52;100.00;97496.75;5019542;28;1487;-68
2023/12/24 04:54:00;;;;;;;;;;;7.20;99.90;;;6.48;100.00;97455.59;5017619;28;1365;-69
2023/12/24 04:56:27;;;;;;;;;;;7.20;99.90;;;6.51;100.00;97482.19;5015644;28;1371;-68
2023/12/24 04:58:56;;;;;;;;;;;7.20;99.90;;;6.52;100.00;97432.28;5016081;28;4992;-69
2023/12/24 05:01:24;;;;;;;;;;;7.20;99.90;;;6.51;100.00;97453.84;5018313;28;1420;-67
2023/12/24 05:03:50;;;;;;;;;;;7.20;99.90;;;6.58;100.00;97416.66;5017041;28;1902;-68
2023/12/24 05:06:17;;;;;;;;;;;7.20;99.90;;;6.54;100.00;97378.94;5016042;28;1390;-68
2023/12/24 05:08:44;;;;;;;;;;;7.20;99.90;;;6.60;100.00;97438.09;5016147;28;1759;-69
2023/12/24 05:11:11;;;;;;;;;;;7.20;99.90;;;6.56;100.00;97428.75;5017402;28;1382;-68
2023/12/24 05:13:38;;;;;;;;;;;7.20;99.90;;;6.60;100.00;97451.00;5032898;28;1413;-68
2023/12/24 05:16:05;;;;;;;;;;;7.20;99.90;;;6.61;100.00;97434.63;5016842;28;1344;-68
2023/12/24 05:18:33;;;;;;;;;;;7.20;99.90;;;6.60;100.00;97397.66;5016673;28;1360;-68
2023/12/24 05:21:00;;;;;;;;;;;7.30;99.90;;;6.65;100.00;97441.38;5033136;28;1394;-69
2023/12/24 05:23:27;;;;;;;;;;;7.30;99.90;;;6.67;100.00;97467.97;5034126;28;2035;-68
2023/12/24 05:25:55;;;;;;;;;;;7.30;99.90;;;6.78;100.00;97444.44;5018790;28;1514;-68
2023/12/24 05:28:21;;;;;;;;;;;7.30;99.90;;;6.82;100.00;97484.72;5014986;28;1419;-68
2023/12/24 05:30:48;;;;;;;;;;;7.30;99.90;;;6.79;100.00;97475.34;5019218;28;1390;-68
2023/12/24 05:33:16;;;;;;;;;;;7.40;99.90;;;6.81;100.00;97454.66;5019495;28;3414;-67
2023/12/24 05:35:43;;;;;;;;;;;7.40;99.90;;;6.85;100.00;97443.38;5018831;28;1474;-69
2023/12/24 05:38:12;;;;;;;;;;;7.50;99.90;;;6.83;100.00;97443.41;5017983;28;1396;-68
2023/12/24 05:40:42;;;;;;;;;;;7.50;99.90;;;6.82;100.00;97470.13;5016720;28;1398;-69
2023/12/24 05:43:09;;;;;;;;;;;7.50;99.90;;;6.78;100.00;97447.03;5017162;28;1923;-68
2023/12/24 05:45:37;;;;;;;;;;;7.50;99.90;;;6.79;100.00;97448.72;5015811;28;1379;-69
2023/12/24 05:48:04;;;;;;;;;;;7.40;99.90;;;6.76;100.00;97433.34;5022623;28;1370;-69
2023/12/24 05:50:31;;;;;;;;;;;7.50;99.90;;;6.77;100.00;97420.38;5018516;28;1272;-68
2023/12/24 05:52:58;;;;;;;;;;;7.50;99.90;;;6.81;100.00;97431.44;5019435;28;1452;-69
2023/12/24 05:55:28;;;;;;;;;;;7.50;99.90;;;6.78;100.00;97449.63;5020390;28;1671;-69
2023/12/24 05:57:55;;;;;;;;;;;7.40;99.90;;;6.73;100.00;97457.50;5020669;28;5051;-69
2023/12/24 06:00:22;;;;;;;;;;;7.40;99.90;;;6.72;100.00;97418.84;5021479;28;1344;-69
2023/12/24 06:02:49;;;;;;;;;;;7.40;99.90;;;6.73;100.00;97431.69;5020247;28;1934;-68
2023/12/24 06:05:17;;;;;;;;;;;7.40;99.90;;;6.73;100.00;97497.88;5021857;28;1435;-69
2023/12/24 06:07:44;;;;;;;;;;;7.40;99.90;;;6.74;100.00;97424.78;5017529;28;1417;-68
2023/12/24 06:10:11;;;;;;;;;;;7.40;99.90;;;6.73;100.00;97398.16;5022157;28;1372;-70
2023/12/24 06:12:38;;;;;;;;;;;7.40;99.90;;;6.76;100.00;97389.47;5022662;28;1391;-68
2023/12/24 06:15:05;;;;;;;;;;;7.40;99.90;;;6.77;100.00;97415.22;5020123;28;1627;-68
2023/12/24 06:17:32;;;;;;;;;;;7.40;99.90;;;6.76;100.00;97415.28;5019215;28;1462;-68
2023/12/24 06:19:59;;;;;;;;;;;7.30;99.90;;;6.70;100.00;97382.75;5034755;28;1386;-68
2023/12/24 06:22:27;;;;;;;;;;;7.40;99.90;;;6.70;100.00;97424.03;5019715;28;1911;-69
2023/12/24 06:24:54;;;;;;;;;;;7.40;99.90;;;6.67;100.00;97401.75;5020236;28;1413;-68
2023/12/24 06:27:22;;;;;;;;;;;7.40;99.90;;;6.67;100.00;97409.50;5018795;28;1342;-68
2023/12/24 06:29:50;;;;;;;;;;;7.40;99.90;;;6.66;100.00;97441.34;5022298;28;1416;-67
2023/12/24 06:32:17;;;;;;;;;;;7.30;99.90;;;6.64;100.00;97404.44;5021701;28;1423;-69
2023/12/24 06:34:44;;;;;;;;;;;7.30;99.90;;;6.68;100.00;97394.84;5021060;28;1375;-68
2023/12/24 06:37:11;;;;;;;;;;;7.30;99.90;;;6.74;100.00;97407.56;5018338;28;1469;-68
2023/12/24 06:39:38;;;;;;;;;;;7.30;99.90;;;6.64;100.00;97381.22;5021409;28;1340;-69
2023/12/24 06:42:05;;;;;;;;;;;7.30;99.90;;;6.61;100.00;97388.19;5020105;28;1328;-67
2023/12/24 06:44:32;;;;;;;;;;;7.40;99.90;;;6.65;100.00;97393.22;5022584;28;1902;-68
2023/12/24 06:46:59;;;;;;;;;;;7.30;99.90;;;6.66;100.00;97404.38;5023458;28;1458;-68
2023/12/24 06:49:27;;;;;;;;;;;7.30;99.90;;;6.61;100.00;97396.75;5021974;28;1375;-68
2023/12/24 06:51:54;;;;;;;;;;;7.30;99.90;;;6.69;100.00;97422.34;5024157;28;1498;-69
2023/12/24 06:54:20;;;;;;;;;;;7.30;99.90;;;6.76;100.00;97392.06;5021354;28;1478;-68
2023/12/24 06:56:47;;;;;;;;;;;7.40;99.90;;;6.69;100.00;97402.56;5020302;28;1925;-68
2023/12/24 06:59:14;;;;;;;;;;;7.30;99.90;;;6.69;100.00;97384.50;5021587;28;1380;-69
2023/12/24 07:01:41;;;;;;;;;;;7.40;99.90;;;6.66;100.00;97370.84;5022639;28;1391;-69
2023/12/24 07:04:08;;;;;;;;;;;7.30;99.90;;;6.70;100.00;97378.47;5034418;28;2003;-68
2023/12/24 07:06:35;;;;;;;;;;;7.40;99.90;;;6.68;100.00;97430.97;5020406;28;1387;-68
2023/12/24 07:09:02;;;;;;;;;;;7.40;99.90;;;6.68;100.00;97428.38;5017595;28;1352;-68
2023/12/24 07:11:29;;;;;;;;;;;7.30;99.90;;;6.68;100.00;97372.50;5019022;28;1407;-68
2023/12/24 07:13:56;;;;;;;;;;;7.40;99.90;;;6.79;100.00;97385.06;5022275;28;1395;-69
2023/12/24 07:16:23;;;;;;;;;;;7.40;99.90;;;6.80;100.00;97389.34;5020111;28;1392;-69
2023/12/24 07:18:50;;;;;;;;;;;7.40;99.90;;;6.73;100.00;97362.03;5019127;28;1346;-69
2023/12/24 07:21:18;;;;;;;;;;;7.40;99.90;;;6.75;100.00;97373.16;5032177;28;1408;-68
2023/12/24 07:23:44;;;;;;;;;;;7.40;99.90;;;6.77;100.00;97339.56;5033218;28;1909;-70
2023/12/24 07:26:11;;;;;;;;;;;7.40;99.90;;;6.76;100.00;97413.53;5018431;28;1591;-70
2023/12/24 07:28:38;;;;;;;;;;;7.50;99.90;;;6.86;100.00;97372.81;5019310;28;1419;-70
2023/12/24 07:31:06;;;;;;;;;;;7.50;99.90;;;6.96;100.00;97394.88;5033964;28;1474;-69
2023/12/24 07:33:33;;;;;;;;;;;7.50;99.90;;;6.95;100.00;97387.16;5035239;28;1325;-69
2023/12/24 07:36:00;;;;;;;;;;;7.50;99.90;;;6.90;100.00;97353.78;5016844;28;1400;-69
2023/12/24 07:38:29;;;;;;;;;;;7.50;99.90;;;6.97;100.00;97378.47;5019072;28;1388;-68
2023/12/24 07:40:56;;;;;;;;;;;7.60;99.90;;;6.98;100.00;97382.78;5018587;28;1352;-68
2023/12/24 07:43:23;;;;;;;;;;;7.60;99.90;;;6.95;100.00;97372.53;5017847;28;2001;-69
2023/12/24 07:45:50;;;;;;;;;;;7.60;99.90;;;7.02;100.00;97406.72;5021847;28;1446;-70
2023/12/24 07:48:17;;;;;;;;;;;7.60;99.90;;;7.08;100.00;97412.53;5019239;28;1435;-68
2023/12/24 07:50:45;;;;;;;;;;;7.60;99.90;;;7.21;100.00;97414.75;5020020;28;1419;-68
2023/12/24 07:53:12;;;;;;;;;;;7.60;99.90;;;7.25;100.00;97422.34;5016889;28;3060;-68
2023/12/24 07:55:39;;;;;;;;;;;7.70;99.90;;;7.18;100.00;97412.25;5019876;28;1340;-69
2023/12/24 07:58:06;;;;;;;;;;;7.70;99.90;;;7.16;100.00;97383.06;5035095;28;5430;-68
2023/12/24 08:00:33;;;;;;;;;;;7.70;99.90;;;7.24;100.00;97402.59;5033357;28;1446;-69
2023/12/24 08:03:00;;;;;;;;;;;7.70;99.90;;;7.26;100.00;97416.28;5031964;28;1955;-69
2023/12/24 08:05:28;;;;;;;;;;;7.80;99.90;;;7.24;100.00;97401.75;5015309;28;1423;-69
2023/12/24 08:07:55;;;;;;;;;;;7.90;99.90;;;7.23;100.00;97411.22;5020905;28;1200;-68
2023/12/24 08:10:21;;;;;;;;;;;7.80;99.90;;;7.28;100.00;97411.09;5016195;28;1410;-69
2023/12/24 08:12:48;;;;;;;;;;;7.90;99.90;;;7.27;100.00;97438.63;5032422;28;1541;-68
2023/12/24 08:15:21;;;;;;;;;;;7.80;99.90;;;7.27;100.00;97397.31;5015454;28;1418;-68
2023/12/24 08:17:48;;;;;;;;;;;7.90;99.90;;;7.25;100.00;97377.59;5035935;28;1144;-68
2023/12/24 08:20:16;;;;;;;;;;;7.90;99.90;;;7.27;100.00;97381.81;5018276;28;1548;-69
2023/12/24 08:22:44;;;;;;;;;;;7.80;99.90;;;7.28;100.00;97403.34;5018319;28;1403;-69
2023/12/24 08:25:10;;;;;;;;;;;7.90;99.90;;;7.26;100.00;97384.47;5018397;28;1934;-68
2023/12/24 08:27:37;;;;;;;;;;;7.90;99.90;;;7.36;100.00;97406.50;5020701;28;1458;-69
2023/12/24 08:30:05;;;;;;;;;;;7.90;99.90;;;7.33;100.00;97389.38;5017158;28;1435;-69
2023/12/24 08:32:32;;;;;;;;;;;7.90;99.90;;;7.31;100.00;97375.66;5015152;28;1349;-69
2023/12/24 08:34:59;;;;;;;;;;;7.90;99.90;;;7.32;100.00;97397.16;5032947;28;1284;-67
2023/12/24 08:37:26;;;;;;;;;;;7.90;99.90;;;7.27;100.00;97386.97;5016355;28;1070;-69
2023/12/24 08:39:53;;;;;;;;;;;7.90;99.90;;;7.26;100.00;97385.31;5015176;28;1327;-68
2023/12/24 08:42:20;;;;;;;;;;;7.90;99.90;;;7.19;100.00;97377.81;5016612;28;1449;-69
2023/12/24 08:44:46;;;;;;;;;;;7.90;99.90;;;7.32;100.00;97389.41;5016579;28;1989;-68
2023/12/24 08:47:13;;;;;;;;;;;7.80;99.90;;;7.25;100.00;97373.31;5016362;28;1454;-69
2023/12/24 08:49:40;;;;;;;;;;;7.90;99.90;;;7.30;100.00;97371.41;5033875;28;3011;-69
2023/12/24 08:52:07;;;;;;;;;;;7.80;99.90;;;7.27;100.00;97352.56;5017426;28;1394;-69
2023/12/24 08:54:34;;;;;;;;;;;7.90;99.90;;;7.29;100.00;97384.34;5016658;28;1316;-69
2023/12/24 08:57:02;;;;;;;;;;;7.90;99.90;;;7.39;100.00;97409.00;5018026;28;5074;-69
2023/12/24 08:59:29;;;;;;;;;;;7.90;99.90;;;7.35;100.00;97379.00;5017058;28;1514;-69
2023/12/24 09:01:56;;;;;;;;;;;7.90;99.90;;;7.37;100.00;97389.25;5015498;28;1430;-68
2023/12/24 09:04:23;;;;;;;;;;;7.90;99.90;;;7.40;100.00;97381.44;5029572;28;1908;-69
2023/12/24 09:06:50;;;;;;;;;;;8.00;99.90;;;7.42;100.00;97389.97;5019633;28;1434;-68
2023/12/24 09:09:17;;;;;;;;;;;8.00;99.90;;;7.47;100.00;97416.50;5018153;28;1364;-68
2023/12/24 09:11:44;;;;;;;;;;;8.00;99.90;;;7.54;100.00;97390.41;5014803;28;1431;-69
2023/12/24 09:14:11;;;;;;;;;;;8.00;99.90;;;7.52;100.00;97378.44;5015301;28;1359;-68
2023/12/24 09:16:41;;;;;;;;;;;8.10;99.90;;;7.47;100.00;97401.84;5014653;28;1423;-69
2023/12/24 09:19:07;;;;;;;;;;;8.10;99.90;;;7.44;100.00;97411.44;5017158;28;1423;-68
2023/12/24 09:21:35;;;;;;;;;;;8.10;99.90;;;7.48;100.00;97408.69;5017689;28;1515;-69
2023/12/24 09:24:02;;;;;;;;;;;8.00;99.90;;;7.48;100.00;97397.50;5016521;28;1981;-69
2023/12/24 09:26:29;;;;;;;;;;;8.10;99.90;;;7.52;100.00;97401.69;5016640;28;1495;-68
2023/12/24 09:28:56;;;;;;;;;;;8.10;99.90;;;7.67;100.00;97390.00;5020508;28;1076;-69
2023/12/24 09:31:23;;;;;;;;;;;8.10;99.90;;;7.63;100.00;97389.25;5020118;28;1411;-68
2023/12/24 09:33:49;;;;;;;;;;;8.10;99.90;;;7.65;100.00;97405.53;5011350;28;1394;-68
2023/12/24 09:36:16;;;;;;;;;;;8.10;99.90;;;7.59;100.00;97391.97;5019765;28;1400;-68
2023/12/24 09:38:43;;;;;;;;;;;8.20;99.90;;;7.65;100.00;97413.28;5015060;28;1818;-68
2023/12/24 09:41:11;;;;;;;;;;;8.20;99.90;;;7.65;100.00;97408.13;5017147;28;2000;-68
2023/12/24 09:43:39;;;;;;;;;;;8.10;99.90;;;7.66;100.00;97409.84;5031953;28;1902;-68
2023/12/24 09:46:06;;;;;;;;;;;8.20;99.90;;;7.56;100.00;97441.19;5021577;28;3121;-69
2023/12/24 09:48:34;;;;;;;;;;;8.10;99.90;;;7.63;100.00;97402.16;5018297;28;1470;-68
2023/12/24 09:51:01;;;;;;;;;;;8.10;99.90;;;7.63;100.00;97428.00;5017224;28;1993;-69
2023/12/24 09:53:29;;;;;;;;;;;8.10;99.90;;;7.59;100.00;97413.50;5015322;28;1339;-68
2023/12/24 09:55:57;;;;;;;;;;;8.10;99.90;;;7.59;100.00;97452.22;5033993;28;1488;-69
2023/12/24 09:58:23;;;;;;;;;;;8.10;99.90;;;7.61;100.00;97406.53;5035192;28;1545;-68
2023/12/24 10:00:50;;;;;;;;;;;8.20;99.90;;;7.54;100.00;97423.97;5021500;28;1469;-69
2023/12/24 10:03:20;;;;;;;;;;;8.10;99.90;;;7.58;100.00;97432.47;5022837;28;1911;-68
2023/12/24 10:06:03;;;;;;;;;;;8.10;99.90;;;7.67;100.00;97416.66;5019282;28;1443;-68
2023/12/24 10:08:36;;;;;;;;;;;8.10;99.90;;;7.57;100.00;97417.84;5020335;28;1428;-70
2023/12/24 10:11:13;;;;;;;;;;;8.10;99.90;;;7.60;100.00;97404.03;5033812;28;1117;-69
2023/12/24 10:13:40;;;;;;;;;;;8.10;99.90;;;7.54;100.00;97394.72;5020524;28;1428;-69
2023/12/24 10:16:09;;;;;;;;;;;8.20;99.90;;;7.68;100.00;97402.00;5050235;28;1398;-69
2023/12/24 10:18:48;;;;;;;;;;;8.20;99.90;;;7.64;100.00;97395.25;5015689;28;1597;-70
2023/12/24 10:21:16;;;;;;;;;;;8.20;99.90;;;7.72;100.00;97404.44;5049888;28;1332;-69
2023/12/24 10:23:43;;;;;;;;;;;8.10;99.90;;;7.65;100.00;97384.88;5021050;28;1910;-69
2023/12/24 10:26:11;;;;;;;;;;;8.20;99.90;;;7.69;100.00;97398.53;5017582;28;1131;-69
2023/12/24 10:28:49;;;;;;;;;;;8.20;99.90;;;7.64;100.00;97413.34;5016903;28;1258;-69
2023/12/24 10:31:27;;;;;;;;;;;8.10;99.90;;;7.61;100.00;97379.88;5020309;28;1452;-69
2023/12/24 10:33:59;;;;;;;;;;;8.20;99.90;;;7.58;100.00;97409.22;5021366;28;1530;-69
2023/12/24 10:36:26;;;;;;;;;;;8.10;99.90;;;7.64;100.00;97410.75;5020908;28;1396;-69
2023/12/24 10:38:53;;;;;;;;;;;8.10;99.90;;;7.58;100.00;97398.91;5033906;28;1378;-69
2023/12/24 10:41:20;;;;;;;;;;;8.10;99.90;;;7.52;100.00;97409.44;5031153;28;3209;-69
2023/12/24 10:43:47;;;;;;;;;;;8.10;99.90;;;7.58;100.00;97378.22;5018834;28;1979;-70
2023/12/24 10:46:13;;;;;;;;;;;8.10;99.90;;;7.57;100.00;97394.59;5033270;28;1526;-69
2023/12/24 10:48:41;;;;;;;;;;;8.10;99.90;;;7.54;100.00;97398.16;5022723;28;1403;-69
2023/12/24 10:51:07;;;;;;;;;;;8.10;99.90;;;7.56;100.00;97395.53;5017888;28;1400;-70
2023/12/24 10:53:40;;;;;;;;;;;8.10;99.90;;;7.53;100.00;97393.06;5005451;28;1387;-69
2023/12/24 10:56:11;;;;;;;;;;;8.10;99.90;;;7.49;100.00;97407.78;5020197;28;1319;-69
2023/12/24 10:58:41;;;;;;;;;;;8.10;99.90;;;7.54;100.00;97387.81;5032719;28;5000;-69
2023/12/24 11:01:08;;;;;;;;;;;8.10;99.90;;;7.62;100.00;97403.06;5032894;28;1589;-69
2023/12/24 11:03:44;;;;;;;;;;;8.10;99.90;;;7.64;100.00;97397.84;5018982;28;1981;-69
2023/12/24 11:06:11;;;;;;;;;;;8.10;99.90;;;7.68;100.00;97376.16;5032771;28;1436;-70
2023/12/24 11:08:38;;;;;;;;;;;8.20;99.90;;;7.63;100.00;97366.00;5020117;28;1316;-69
2023/12/24 11:11:08;;;;;;;;;;;8.20;99.90;;;7.67;100.00;97398.59;5019845;28;2009;-69
2023/12/24 11:13:36;;;;;;;;;;;8.20;99.90;;;7.79;100.00;97399.06;5020224;28;1304;-69
2023/12/24 11:16:06;;;;;;;;;;;8.20;99.90;;;7.81;100.00;97397.28;5019913;28;1521;-69
2023/12/24 11:18:42;;;;;;;;;;;8.20;99.90;;;7.80;100.00;97401.63;5017628;28;1094;-69
2023/12/24 11:21:11;;;;;;;;;;;8.20;99.90;;;7.75;100.00;97387.97;5024323;28;1384;-69
2023/12/24 11:23:39;;;;;;;;;;;8.20;99.90;;;7.74;100.00;97381.97;5018746;28;1601;-69
2023/12/24 11:26:31;;;;;;;;;;;8.20;99.90;;;7.85;100.00;97378.19;5021228;28;1164;-69
2023/12/24 11:28:59;;;;;;;;;;;8.20;99.90;;;7.77;100.00;97383.59;5029979;28;1638;-68
2023/12/24 11:31:26;;;;;;;;;;;8.30;99.90;;;7.71;100.00;97376.09;5034397;28;1366;-70
2023/12/24 11:33:54;;;;;;;;;;;8.30;99.90;;;7.73;100.00;97380.31;5016342;28;2387;-69
2023/12/24 11:36:23;;;;;;;;;;;8.30;99.90;;;7.82;100.00;97358.44;5018406;28;1279;-69